Terminal Aerodrome Forecast
Issued by NWS

Home | Current Version | Previous Version | Text Only | Print | Product List | Glossary Off
Versions: 1 2 3 4 5 6 7 8 9 10 11 12 13 14 15 16

702
FTUS41 KCLE 210910 AAA
TAFFDY
TAF AMD
KFDY 210910Z 2109/2206 33005KT 1/4SM FG VV002
      TEMPO 2109/2113 1SM BR OVC004
     FM211300 34005KT 2SM BR OVC006
      TEMPO 2113/2115 4SM BR SCT006
     FM211500 32010KT P6SM SCT035
     FM220300 34014G22KT P6SM SCT035=

USA.gov is the U.S. government's official web portal to all federal, state and local government web resources and services.